createdAt,value
2022-08-02T00:01:00.074Z,100084.81
2022-08-02T00:03:27.981Z,100125.53
2022-08-02T00:05:56.068Z,100121.34
2022-08-02T00:08:24.035Z,100132.72
2022-08-02T00:10:51.871Z,100133.63
2022-08-02T00:13:19.937Z,100132.84
2022-08-02T00:15:49.117Z,100133.78
2022-08-02T00:18:17.068Z,100121.66
2022-08-02T00:20:44.909Z,100138.28
2022-08-02T00:23:13.952Z,100137.47
2022-08-02T00:25:54.354Z,100140.19
2022-08-02T00:28:27.172Z,100139.38
2022-08-02T00:30:57.233Z,100138.63
2022-08-02T00:34:26.779Z,100146.59
2022-08-02T00:36:13.140Z,100135.13
2022-08-02T00:38:40.965Z,100140.44
2022-08-02T00:41:13.305Z,100129.22
2022-08-02T00:43:41.450Z,100122.97
2022-08-02T00:46:10.870Z,100126.44
2022-08-02T00:48:43.016Z,100121.19
2022-08-02T00:51:11.341Z,100129.22
2022-08-02T00:53:39.242Z,100124.78
2022-08-02T00:56:07.248Z,100129.31
2022-08-02T00:58:35.174Z,100126.66
2022-08-02T01:01:03.591Z,100124.97
2022-08-02T01:03:32.983Z,100127.66
2022-08-02T01:06:16.181Z,100111.31
2022-08-02T01:08:44.486Z,100131.38
2022-08-02T01:11:12.527Z,100125.25
2022-08-02T01:13:40.358Z,100127.09
2022-08-02T01:16:14.916Z,100126.31
2022-08-02T01:18:46.828Z,100135.34
2022-08-02T01:21:34.605Z,100129.72
2022-08-02T01:24:17.203Z,100116.63
2022-08-02T01:26:47.961Z,100113.25
2022-08-02T01:29:20.018Z,100119.44
2022-08-02T01:31:50.452Z,100105.56
2022-08-02T01:34:20.154Z,100106.47
2022-08-02T01:36:51.118Z,100101.19
2022-08-02T01:39:26.500Z,100075.22
2022-08-02T01:42:00.085Z,100109.06
2022-08-02T01:44:30.116Z,100103.84
2022-08-02T01:46:59.163Z,100100.53
2022-08-02T01:49:27.329Z,100098.69
2022-08-02T01:52:14.143Z,100109.13
2022-08-02T01:54:42.106Z,100097.03
2022-08-02T01:57:11.468Z,100106.66
2022-08-02T01:59:40.782Z,100107.59
2022-08-02T02:02:09.443Z,100107.63
2022-08-02T02:04:38.025Z,100123.97
2022-08-02T02:07:05.986Z,100100.59
2022-08-02T02:09:35.474Z,100101.53
2022-08-02T02:12:17.588Z,100097.06
2022-08-02T02:15:07.307Z,100096.09
2022-08-02T02:18:10.497Z,100091.91
2022-08-02T02:20:22.938Z,100094.59
2022-08-02T02:22:53.407Z,100036.50
2022-08-02T02:25:26.873Z,100087.69
2022-08-02T02:28:06.059Z,100082.47
2022-08-02T02:30:35.327Z,100084.25
2022-08-02T02:33:03.716Z,100089.78
2022-08-02T02:35:33.224Z,100091.50
2022-08-02T02:38:02.386Z,100040.56
2022-08-02T02:40:30.347Z,100082.91
2022-08-02T02:42:58.338Z,100088.13
2022-08-02T02:45:26.344Z,100083.03
2022-08-02T02:47:55.570Z,100088.44
2022-08-02T02:50:24.241Z,100085.88
2022-08-02T02:52:52.098Z,100080.66
2022-08-02T02:55:19.986Z,100065.97
2022-08-02T02:57:47.807Z,100084.25
2022-08-02T03:00:16.372Z,100073.88
2022-08-02T03:02:45.027Z,100074.69
2022-08-02T03:05:14.416Z,100068.75
2022-08-02T03:07:42.243Z,100042.78
2022-08-02T03:10:11.611Z,100059.16
2022-08-02T03:12:43.719Z,100059.16
2022-08-02T03:15:13.377Z,100061.00
2022-08-02T03:17:42.053Z,100062.16
2022-08-02T03:20:12.053Z,100073.59
2022-08-02T03:22:41.438Z,100062.50
2022-08-02T03:25:10.263Z,100077.25
2022-08-02T03:27:38.068Z,100075.53
2022-08-02T03:30:07.049Z,100060.06
2022-08-02T03:32:35.070Z,100066.91
2022-08-02T03:35:03.560Z,99885.78
2022-08-02T03:37:31.892Z,99875.44
2022-08-02T03:40:01.192Z,100048.00
2022-08-02T03:42:29.924Z,100071.59
2022-08-02T03:44:58.147Z,99978.66
2022-08-02T03:47:26.143Z,100173.31
2022-08-02T03:49:54.215Z,100097.41
2022-08-02T03:52:22.577Z,99925.41
2022-08-02T03:54:50.686Z,99785.16
2022-08-02T03:57:20.374Z,99793.06
2022-08-02T03:59:48.581Z,99844.66
2022-08-02T04:02:16.803Z,99929.41
2022-08-02T04:04:44.838Z,99817.25
2022-08-02T04:07:12.962Z,99804.00
2022-08-02T04:09:40.956Z,100095.03
2022-08-02T04:12:09.418Z,100073.88
2022-08-02T04:14:38.908Z,99970.56
2022-08-02T04:17:08.651Z,99935.28
2022-08-02T04:19:39.742Z,100056.66
2022-08-02T04:22:08.983Z,100087.91
2022-08-02T04:24:39.397Z,99966.56
2022-08-02T04:27:49.025Z,100006.94
2022-08-02T04:29:56.680Z,100079.13
2022-08-02T04:32:24.610Z,100116.88
2022-08-02T04:35:18.287Z,99873.16
2022-08-02T04:38:08.620Z,99947.84
2022-08-02T04:40:28.436Z,99786.81
2022-08-02T04:42:56.392Z,100069.72
2022-08-02T04:45:25.966Z,100001.81
2022-08-02T04:48:01.995Z,99966.56
2022-08-02T04:50:32.256Z,100060.94
2022-08-02T04:53:00.358Z,99865.00
2022-08-02T04:55:31.013Z,99817.94
2022-08-02T04:57:59.256Z,99778.72
2022-08-02T05:00:29.321Z,99981.59
2022-08-02T05:02:57.367Z,99934.53
2022-08-02T05:05:25.649Z,99919.09
2022-08-02T05:07:53.719Z,100155.56
2022-08-02T05:10:22.521Z,99968.06
2022-08-02T05:12:53.152Z,99897.81
2022-08-02T05:15:21.415Z,99721.69
2022-08-02T05:17:56.399Z,99998.56
2022-08-02T05:20:24.797Z,99812.88
2022-08-02T05:22:58.281Z,100103.44
2022-08-02T05:25:28.620Z,99971.31
2022-08-02T05:27:56.756Z,99903.00
2022-08-02T05:30:25.184Z,99987.06
2022-08-02T05:32:54.808Z,99703.13
2022-08-02T05:35:24.323Z,99981.06
2022-08-02T05:37:52.650Z,99802.69
2022-08-02T05:40:25.338Z,99963.03
2022-08-02T05:42:54.387Z,100045.59
2022-08-02T05:45:22.490Z,99850.19
2022-08-02T05:47:50.857Z,99683.09
2022-08-02T05:50:20.969Z,99816.94
2022-08-02T05:52:52.670Z,100044.38
2022-08-02T05:55:35.090Z,100005.53
2022-08-02T05:58:04.688Z,99968.22
2022-08-02T06:00:33.636Z,100078.53
2022-08-02T06:03:19.561Z,99959.78
2022-08-02T06:05:52.503Z,99954.78
2022-08-02T06:08:23.614Z,99798.06
2022-08-02T06:10:52.980Z,99950.50
2022-08-02T06:13:46.721Z,99655.81
2022-08-02T06:16:14.985Z,100101.97
2022-08-02T06:18:46.447Z,99817.47
2022-08-02T06:22:34.891Z,99720.78
2022-08-02T06:24:06.676Z,100081.44
2022-08-02T06:26:34.981Z,100082.69
2022-08-02T06:29:03.239Z,99897.06
2022-08-02T06:31:31.463Z,99855.03
2022-08-02T06:34:02.433Z,99808.16
2022-08-02T06:36:35.638Z,99850.47
2022-08-02T06:40:02.401Z,99701.97
2022-08-02T06:42:34.056Z,99830.13
2022-08-02T06:45:02.056Z,100066.09
2022-08-02T06:47:30.257Z,99971.34
2022-08-02T06:49:58.538Z,100069.28
2022-08-02T06:52:30.044Z,99933.47
2022-08-02T06:54:59.659Z,100076.38
2022-08-02T06:57:30.747Z,99845.41
2022-08-02T07:00:03.369Z,99927.47
2022-08-02T07:02:53.549Z,99985.25
2022-08-02T07:05:28.729Z,99902.66
2022-08-02T07:07:58.273Z,99886.59
2022-08-02T07:10:27.854Z,100028.66
2022-08-02T07:12:59.913Z,99877.91
2022-08-02T07:15:31.565Z,99998.00
2022-08-02T07:18:04.980Z,99837.28
2022-08-02T07:20:33.242Z,99926.72
2022-08-02T07:23:06.601Z,99826.38
2022-08-02T07:26:01.770Z,99956.09
2022-08-02T07:28:29.438Z,99982.84
2022-08-02T07:31:00.379Z,99707.19
2022-08-02T07:33:38.220Z,100068.78
2022-08-02T07:36:16.714Z,99959.41
2022-08-02T07:38:53.931Z,100079.16
2022-08-02T07:41:28.088Z,99707.56
2022-08-02T07:43:58.712Z,100000.84
2022-08-02T07:46:28.881Z,99845.06
2022-08-02T07:49:01.241Z,99834.53
2022-08-02T07:51:35.980Z,100091.91
2022-08-02T07:54:05.731Z,99973.09
2022-08-02T07:56:44.797Z,100152.47
2022-08-02T07:59:16.961Z,99993.75
2022-08-02T08:01:59.253Z,100104.22
2022-08-02T08:04:39.099Z,99855.38
2022-08-02T08:07:13.577Z,100018.69
2022-08-02T08:09:47.679Z,99705.44
2022-08-02T08:12:16.766Z,99767.69
2022-08-02T08:14:45.187Z,99787.34
2022-08-02T08:17:23.040Z,99976.94
2022-08-02T08:20:12.803Z,99718.28
2022-08-02T08:22:44.135Z,99713.88
2022-08-02T08:25:20.861Z,99629.66
2022-08-02T08:27:51.425Z,99685.16
2022-08-02T08:30:19.503Z,99983.25
2022-08-02T08:32:47.584Z,99902.41
2022-08-02T08:35:15.513Z,99732.66
2022-08-02T08:37:44.436Z,100045.00
2022-08-02T08:40:19.603Z,99969.41
2022-08-02T08:43:08.876Z,100134.84
2022-08-02T08:45:37.073Z,99783.84
2022-08-02T08:48:30.569Z,99802.56
2022-08-02T08:51:03.107Z,100089.16
2022-08-02T08:53:36.907Z,99827.50
2022-08-02T08:56:15.696Z,99966.94
2022-08-02T08:58:47.605Z,99869.25
2022-08-02T09:01:16.978Z,99686.81
2022-08-02T09:03:50.679Z,100048.19
2022-08-02T09:06:35.710Z,99847.72
2022-08-02T09:09:25.646Z,99987.53
2022-08-02T09:11:59.177Z,99927.31
2022-08-02T09:14:33.087Z,99928.44
2022-08-02T09:17:40.523Z,100033.59
2022-08-02T09:20:14.012Z,100076.97
2022-08-02T09:22:48.420Z,99980.72
2022-08-02T09:25:21.761Z,100092.41
2022-08-02T09:27:53.659Z,99979.84
2022-08-02T09:30:24.388Z,99798.72
2022-08-02T09:33:00.333Z,99921.34
2022-08-02T09:36:07.089Z,99927.97
2022-08-02T09:38:23.592Z,99917.31
2022-08-02T09:41:15.908Z,100096.31
2022-08-02T09:44:03.365Z,100043.81
2022-08-02T09:46:38.251Z,99831.41
2022-08-02T09:49:10.345Z,100026.56
2022-08-02T09:51:50.247Z,99996.41
2022-08-02T09:54:19.125Z,100018.03
2022-08-02T09:56:49.103Z,99943.88
2022-08-02T09:59:22.928Z,99813.31
2022-08-02T10:02:01.495Z,99871.19
2022-08-02T10:04:31.445Z,100064.31
2022-08-02T10:07:03.911Z,100013.44
2022-08-02T10:09:32.488Z,100025.59
2022-08-02T10:12:00.694Z,99952.38
2022-08-02T10:14:29.994Z,99784.25
2022-08-02T10:16:58.321Z,99904.59
2022-08-02T10:20:03.329Z,100019.88
2022-08-02T10:22:16.093Z,100015.53
2022-08-02T10:24:48.434Z,99727.28
2022-08-02T10:27:21.199Z,99968.31
2022-08-02T10:29:54.911Z,99994.25
2022-08-02T10:32:27.570Z,99828.16
2022-08-02T10:34:57.565Z,99834.25
2022-08-02T10:37:31.879Z,99723.31
2022-08-02T10:40:00.400Z,99976.06
2022-08-02T10:42:48.122Z,99733.53
2022-08-02T10:45:19.948Z,100016.25
2022-08-02T10:48:04.701Z,99862.59
2022-08-02T10:50:54.882Z,99998.13
2022-08-02T10:53:27.083Z,100002.66
2022-08-02T10:55:56.068Z,99869.25
2022-08-02T10:58:29.441Z,100037.28
2022-08-02T11:01:00.347Z,99686.13
2022-08-02T11:03:39.706Z,99825.06
2022-08-02T11:06:09.033Z,99864.31
2022-08-02T11:09:31.478Z,99976.94
2022-08-02T11:12:04.893Z,100015.81
2022-08-02T11:14:33.916Z,99807.19
2022-08-02T11:17:18.062Z,99674.00
2022-08-02T11:20:21.053Z,99966.66
2022-08-02T11:22:49.920Z,99994.13
2022-08-02T11:26:02.750Z,99887.38
2022-08-02T11:28:25.840Z,99901.81
2022-08-02T11:31:01.245Z,99881.53
2022-08-02T11:33:36.158Z,99923.81
2022-08-02T11:36:05.970Z,99907.97
2022-08-02T11:38:34.068Z,99958.34
2022-08-02T11:41:06.103Z,99882.47
2022-08-02T11:43:38.159Z,99796.38
2022-08-02T11:46:06.714Z,99853.88
2022-08-02T11:48:37.931Z,99998.78
2022-08-02T11:51:07.303Z,99931.28
2022-08-02T11:53:46.027Z,99876.50
2022-08-02T11:56:14.284Z,99778.41
2022-08-02T11:59:03.273Z,99934.69
2022-08-02T12:01:32.427Z,99741.69
2022-08-02T12:04:18.187Z,99812.44
2022-08-02T12:06:46.457Z,99694.31
2022-08-02T12:09:18.932Z,99699.47
2022-08-02T12:11:50.070Z,99913.81
2022-08-02T12:14:18.378Z,99744.63
2022-08-02T12:17:03.566Z,99849.69
2022-08-02T12:19:33.202Z,99820.63
2022-08-02T12:22:16.679Z,99420.53
2022-08-02T12:24:49.098Z,99671.75
2022-08-02T12:27:33.259Z,99929.59
2022-08-02T12:30:06.858Z,99933.03
2022-08-02T12:32:35.089Z,99961.56
2022-08-02T12:35:07.073Z,99726.47
2022-08-02T12:37:35.156Z,99909.03
2022-08-02T12:40:18.835Z,99745.09
2022-08-02T12:42:55.636Z,99930.03
2022-08-02T12:45:36.499Z,99726.88
2022-08-02T12:48:07.706Z,99725.97
2022-08-02T12:50:38.196Z,99878.03
2022-08-02T12:53:17.584Z,99928.81
2022-08-02T12:56:00.678Z,99785.75
2022-08-02T12:58:31.770Z,99920.28
2022-08-02T13:01:00.548Z,99874.63
2022-08-02T13:04:12.214Z,99659.25
2022-08-02T13:09:14.023Z,99562.78
2022-08-02T13:11:43.528Z,99842.69
2022-08-02T13:14:12.185Z,99902.16
2022-08-02T13:16:40.697Z,99808.88
2022-08-02T13:19:08.857Z,99723.31
2022-08-02T13:21:41.791Z,99617.13
2022-08-02T13:24:38.742Z,99839.31
2022-08-02T13:27:09.977Z,99618.47
2022-08-02T13:29:38.344Z,99898.31
2022-08-02T13:32:06.753Z,99779.28
2022-08-02T13:34:34.830Z,99782.88
2022-08-02T13:37:04.549Z,99702.38
2022-08-02T13:39:32.748Z,99519.69
2022-08-02T13:42:00.896Z,99887.78
2022-08-02T13:44:29.000Z,99783.88
2022-08-02T13:46:57.131Z,99708.34
2022-08-02T13:49:50.643Z,99667.16
2022-08-02T13:52:15.508Z,99535.09
2022-08-02T13:54:44.031Z,99626.00
2022-08-02T13:57:12.139Z,99864.50
2022-08-02T13:59:57.137Z,99939.63
2022-08-02T14:02:28.661Z,99923.78
2022-08-02T14:04:57.098Z,99803.38
2022-08-02T14:07:26.695Z,99750.03
2022-08-02T14:09:54.991Z,99440.53
2022-08-02T14:12:23.132Z,99487.34
2022-08-02T14:14:51.767Z,99768.91
2022-08-02T14:17:20.130Z,99610.78
2022-08-02T14:19:48.527Z,99766.84
2022-08-02T14:22:16.738Z,99763.41
2022-08-02T14:24:46.325Z,99710.56
2022-08-02T14:27:15.772Z,99761.69
2022-08-02T14:29:44.020Z,99852.88
2022-08-02T14:32:12.366Z,99485.34
2022-08-02T14:34:40.868Z,99495.38
2022-08-02T14:37:09.046Z,99894.50
2022-08-02T14:39:43.386Z,99767.06
2022-08-02T14:42:26.671Z,99594.19
2022-08-02T14:44:54.998Z,99433.66
2022-08-02T14:47:23.264Z,99692.84
2022-08-02T14:49:51.810Z,99590.44
2022-08-02T14:52:20.222Z,99830.88
2022-08-02T14:54:48.694Z,99412.66
2022-08-02T14:57:16.849Z,99684.78
2022-08-02T14:59:47.510Z,99650.94
2022-08-02T15:02:16.321Z,99751.53
2022-08-02T15:04:44.568Z,99809.28
2022-08-02T15:07:14.066Z,99856.81
2022-08-02T15:09:43.199Z,99713.06
2022-08-02T15:12:11.766Z,99641.97
2022-08-02T15:14:40.182Z,99815.13
2022-08-02T15:17:09.492Z,99830.78
2022-08-02T15:19:56.621Z,99850.59
2022-08-02T15:22:25.433Z,99711.38
2022-08-02T15:24:54.252Z,99758.41
2022-08-02T15:27:22.142Z,99675.31
2022-08-02T15:29:50.070Z,99823.63
2022-08-02T15:32:19.844Z,99832.78
2022-08-02T15:34:48.714Z,99806.41
2022-08-02T15:37:17.004Z,99618.72
2022-08-02T15:39:47.434Z,99719.16
2022-08-02T15:42:18.540Z,99723.38
2022-08-02T15:44:46.462Z,99716.16
2022-08-02T15:47:14.415Z,99787.34
2022-08-02T15:49:43.924Z,99668.03
2022-08-02T15:52:12.351Z,99643.31
2022-08-02T15:54:40.573Z,99583.59
2022-08-02T15:57:10.690Z,99697.16
2022-08-02T15:59:38.694Z,99629.94
2022-08-02T16:02:07.071Z,99796.38
2022-08-02T16:04:35.373Z,99850.19
2022-08-02T16:07:04.988Z,99786.94
2022-08-02T16:09:32.965Z,99551.97
2022-08-02T16:12:01.025Z,99606.91
2022-08-02T16:14:29.639Z,99686.06
2022-08-02T16:16:57.634Z,99820.50
2022-08-02T16:19:46.311Z,99561.44
2022-08-02T16:22:15.229Z,99682.41
2022-08-02T16:24:43.678Z,99744.03
2022-08-02T16:27:11.869Z,99680.31
2022-08-02T16:29:40.067Z,99720.19
2022-08-02T16:32:18.678Z,99509.31
2022-08-02T16:35:08.547Z,99775.94
2022-08-02T16:37:51.717Z,99776.97
2022-08-02T16:40:20.762Z,99783.06
2022-08-02T16:42:50.888Z,99789.81
2022-08-02T16:45:20.189Z,99782.16
2022-08-02T16:47:56.191Z,99784.44
2022-08-02T16:50:27.154Z,99781.34
2022-08-02T16:52:58.812Z,99777.72
2022-08-02T16:55:29.288Z,99773.44
2022-08-02T16:57:59.042Z,99766.63
2022-08-02T17:00:26.948Z,99769.50
2022-08-02T17:02:54.831Z,99773.34
2022-08-02T17:05:37.673Z,99762.97
2022-08-02T17:08:18.061Z,99769.13
2022-08-02T17:10:46.163Z,99773.53
2022-08-02T17:13:14.003Z,99758.97
2022-08-02T17:16:08.100Z,99714.09
2022-08-02T17:18:30.154Z,99753.00
2022-08-02T17:20:58.117Z,99756.03
2022-08-02T17:24:06.240Z,99745.44
2022-08-02T17:26:15.444Z,99755.72
2022-08-02T17:29:14.144Z,99759.13
2022-08-02T17:31:42.952Z,99761.75
2022-08-02T17:34:12.411Z,99749.84
2022-08-02T17:36:40.259Z,99754.41
2022-08-02T17:39:09.663Z,99759.25
2022-08-02T17:41:49.182Z,99754.16
2022-08-02T17:44:36.658Z,99747.19
2022-08-02T17:47:06.526Z,99745.69
2022-08-02T17:49:38.279Z,99756.19
2022-08-02T17:52:47.988Z,99758.22
2022-08-02T17:55:03.420Z,99741.88
2022-08-02T17:57:57.669Z,99701.69
2022-08-02T18:00:20.081Z,99749.84
2022-08-02T18:02:52.640Z,99746.56
2022-08-02T18:05:23.170Z,99747.75
2022-08-02T18:07:55.495Z,99748.03
2022-08-02T18:10:30.307Z,99710.41
2022-08-02T18:12:59.701Z,99745.50
2022-08-02T18:15:28.854Z,99746.09
2022-08-02T18:18:00.287Z,99749.28
2022-08-02T18:20:28.229Z,99754.38
2022-08-02T18:22:58.775Z,99749.84
2022-08-02T18:25:36.417Z,99752.56
2022-08-02T18:28:13.338Z,99745.03
2022-08-02T18:30:41.270Z,99757.25
2022-08-02T18:33:57.832Z,99753.28
2022-08-02T18:35:56.960Z,99757.56
2022-08-02T18:38:26.883Z,99749.19
2022-08-02T18:40:55.781Z,99742.78
2022-08-02T18:43:29.449Z,99745.06
2022-08-02T18:46:05.952Z,99750.75
2022-08-02T18:48:47.725Z,99752.44
2022-08-02T18:51:16.218Z,99751.16
2022-08-02T18:53:48.912Z,99743.59
2022-08-02T18:56:20.283Z,99755.69
2022-08-02T18:58:54.608Z,99753.84
2022-08-02T19:01:31.769Z,99754.09
2022-08-02T19:04:11.322Z,99754.66
2022-08-02T19:06:39.412Z,99751.69
2022-08-02T19:09:13.082Z,99762.91
2022-08-02T19:11:47.363Z,99762.69
2022-08-02T19:14:23.933Z,99751.16
2022-08-02T19:16:56.708Z,99771.03
2022-08-02T19:19:28.781Z,99736.31
2022-08-02T19:22:26.443Z,99773.25
2022-08-02T19:24:45.769Z,99765.09
2022-08-02T19:27:14.674Z,99740.41
2022-08-02T19:30:04.096Z,99773.34
2022-08-02T19:32:41.366Z,99762.50
2022-08-02T19:35:29.672Z,99772.38
2022-08-02T19:38:07.290Z,99772.59
2022-08-02T19:40:35.249Z,99774.81
2022-08-02T19:44:24.048Z,99781.84
2022-08-02T19:45:53.329Z,99789.81
2022-08-02T19:48:26.839Z,99791.31
2022-08-02T19:51:00.965Z,99797.47
2022-08-02T19:53:48.432Z,99798.97
2022-08-02T19:56:25.111Z,99792.78
2022-08-02T19:58:54.836Z,99795.97
2022-08-02T20:01:37.006Z,99790.59
2022-08-02T20:04:06.763Z,99803.81
2022-08-02T20:06:34.647Z,99797.47
2022-08-02T20:09:03.455Z,99807.59
2022-08-02T20:11:34.641Z,99810.06
2022-08-02T20:14:04.091Z,99807.00
2022-08-02T20:16:33.430Z,99809.44
2022-08-02T20:19:02.257Z,99809.34
2022-08-02T20:21:36.398Z,99804.34
2022-08-02T20:24:07.109Z,99805.03
2022-08-02T20:26:35.704Z,99808.31
2022-08-02T20:29:05.985Z,99815.16
2022-08-02T20:31:37.399Z,99810.34
2022-08-02T20:34:05.605Z,99807.19
2022-08-02T20:36:35.134Z,99818.03
2022-08-02T20:39:02.998Z,99811.44
2022-08-02T20:41:37.307Z,99826.81
2022-08-02T20:44:15.766Z,99809.94
2022-08-02T20:46:59.454Z,99816.28
2022-08-02T20:49:40.542Z,99815.88
2022-08-02T20:52:23.404Z,99816.22
2022-08-02T20:54:52.563Z,99804.44
2022-08-02T20:57:20.434Z,99797.19
2022-08-02T21:00:09.111Z,99813.75
2022-08-02T21:02:38.399Z,99806.66
2022-08-02T21:05:17.543Z,99797.09
2022-08-02T21:07:47.889Z,99805.88
2022-08-02T21:10:21.481Z,99808.03
2022-08-02T21:12:52.077Z,99811.19
2022-08-02T21:15:19.905Z,99807.06
2022-08-02T21:17:51.524Z,99807.44
2022-08-02T21:20:27.515Z,99813.25
2022-08-02T21:22:58.025Z,99785.50
2022-08-02T21:25:42.798Z,99812.41
2022-08-02T21:28:17.499Z,99805.88
2022-08-02T21:30:46.052Z,99809.00
2022-08-02T21:33:18.121Z,99811.06
2022-08-02T21:35:52.256Z,99814.69
2022-08-02T21:38:35.566Z,99823.06
2022-08-02T21:41:06.312Z,99826.06
2022-08-02T21:43:40.491Z,99828.22
2022-08-02T21:46:14.789Z,99722.84
2022-08-02T21:48:44.562Z,99788.75
2022-08-02T21:51:15.860Z,99789.81
2022-08-02T21:54:18.056Z,99746.94
2022-08-02T21:56:33.309Z,99666.84
2022-08-02T21:59:15.867Z,99912.03
2022-08-02T22:01:52.273Z,99838.25
2022-08-02T22:04:23.169Z,99634.28
2022-08-02T22:06:51.955Z,99834.28
2022-08-02T22:09:43.146Z,99518.75
2022-08-02T22:12:10.186Z,99776.56
2022-08-02T22:14:41.088Z,99745.44
2022-08-02T22:17:13.634Z,99602.31
2022-08-02T22:19:53.734Z,99525.22
2022-08-02T22:22:28.281Z,99781.63
2022-08-02T22:24:57.120Z,99618.19
2022-08-02T22:28:35.977Z,99705.97
2022-08-02T22:30:13.654Z,99783.22
2022-08-02T22:33:00.259Z,99765.78
2022-08-02T22:35:30.508Z,99711.22
2022-08-02T22:38:17.586Z,99779.75
2022-08-02T22:40:46.801Z,99468.56
2022-08-02T22:46:02.790Z,99881.78
2022-08-02T22:48:30.910Z,99748.25
2022-08-02T22:51:01.816Z,99590.72
2022-08-02T22:53:35.451Z,99589.00
2022-08-02T22:56:03.988Z,99850.47
2022-08-02T22:58:32.712Z,99943.59
2022-08-02T23:01:00.892Z,99797.72
2022-08-02T23:03:28.948Z,99803.88
2022-08-02T23:05:56.906Z,99467.94
2022-08-02T23:08:26.306Z,99819.41
2022-08-02T23:10:54.156Z,99768.06
2022-08-02T23:13:26.625Z,99861.44
2022-08-02T23:16:13.887Z,99560.41
2022-08-02T23:19:04.692Z,99790.28
2022-08-02T23:22:00.950Z,99824.09
2022-08-02T23:24:23.716Z,99935.47
2022-08-02T23:26:51.675Z,99831.25
2022-08-02T23:29:19.635Z,99713.38
2022-08-02T23:31:47.629Z,99864.97
2022-08-02T23:34:15.626Z,99797.59
2022-08-02T23:36:43.652Z,99747.94
2022-08-02T23:39:11.696Z,99796.81
2022-08-02T23:41:41.072Z,99917.03
2022-08-02T23:44:14.085Z,99664.69
2022-08-02T23:46:43.241Z,99717.09
2022-08-02T23:49:12.544Z,99811.66
2022-08-02T23:51:40.493Z,99754.13
2022-08-02T23:54:08.616Z,99755.16
2022-08-02T23:56:37.588Z,99820.16
2022-08-02T23:59:07.696Z,99718.13
